Montpelier, Virginia
Current Conditions -  °F | °C
As of 1:15 PM on Thursday 23 Oct 2014 (Local Time) from K7W4 Reporting Station
Clear Clear  
Wind Chill: 64°   Ceiling: Unl
Heat Index: 64°   Visibility: 10mi
Dew Point: 45°   Wind: 7mph
Humidity: 51%   Direction: 300°WNW
Pressure: 29.9"   Gusts: 17mph
Location:  37.82°N, 77.68°W
Report Text: K7W4 231715Z AUTO 30006G15KT 260V030 10SM CLR 18/07 A2990 RMK AO1 T01750073
Loading
Personal Weather Stations






























Interactive Weather Map
Tropical Storm Tracking
New forecast layout! Learn more

10-Day Weather Forecast

Advertisements
Track Severe Weather on mobile